Time;durP1;ratioP1;P1;durP2;ratioP2;P2;SDS_P1;SDS_P2;PMS_P1;PMS_P2;Temp;Humidity;BMP_temperature;BMP_pressure;BME280_temperature;BME280_humidity;BME280_pressure;Samples;Min_cycle;Max_cycle;Signal;HPM_P1;HPM_P2
2023/12/20 00:02:20;;;;;;;2.10;1.77;;;;;;;5.37;100.00;99436.75;5109328;28;20205;-63
2023/12/20 00:04:47;;;;;;;2.17;1.10;;;;;;;5.38;100.00;99438.38;5109689;28;20629;-63
2023/12/20 00:07:14;;;;;;;1.23;1.13;;;;;;;5.39;100.00;99445.94;5109823;28;20193;-63
2023/12/20 00:09:40;;;;;;;1.07;0.80;;;;;;;5.46;100.00;99446.47;5110012;28;20197;-63
2023/12/20 00:12:09;;;;;;;1.43;0.90;;;;;;;5.53;100.00;99447.84;5109699;28;20509;-63
2023/12/20 00:14:36;;;;;;;0.93;0.87;;;;;;;5.49;100.00;99441.25;5109534;28;20211;-62
2023/12/20 00:17:03;;;;;;;2.47;1.23;;;;;;;5.48;100.00;99433.72;5109519;28;20235;-62
2023/12/20 00:19:30;;;;;;;8.20;1.30;;;;;;;5.46;100.00;99436.31;5109533;28;20536;-62
2023/12/20 00:21:57;;;;;;;1.97;1.50;;;;;;;5.44;100.00;99428.81;5109623;28;20197;-62
2023/12/20 00:24:23;;;;;;;2.17;1.13;;;;;;;5.42;100.00;99425.50;5109506;28;20204;-62
2023/12/20 00:26:50;;;;;;;1.23;1.13;;;;;;;5.33;100.00;99425.94;5109582;28;20208;-62
2023/12/20 00:29:18;;;;;;;1.10;1.00;;;;;;;5.27;100.00;99422.84;5109423;28;20227;-62
2023/12/20 00:31:45;;;;;;;1.03;0.83;;;;;;;5.27;100.00;99420.31;5109195;28;20437;-63
2023/12/20 00:34:12;;;;;;;1.53;1.07;;;;;;;5.33;100.00;99409.91;5109238;28;20666;-62
2023/12/20 00:36:39;;;;;;;1.13;0.77;;;;;;;5.38;100.00;99418.09;5109377;28;20294;-62
2023/12/20 00:39:06;;;;;;;1.87;0.70;;;;;;;5.34;100.00;99411.53;5109387;28;20379;-62
2023/12/20 00:41:33;;;;;;;0.97;0.70;;;;;;;5.28;100.00;99404.22;5109379;28;20742;-62
2023/12/20 00:44:00;;;;;;;1.53;1.07;;;;;;;5.20;100.00;99400.28;5109250;28;20197;-62
2023/12/20 00:46:28;;;;;;;1.40;1.03;;;;;;;5.20;100.00;99394.41;5109229;28;20193;-62
2023/12/20 00:48:55;;;;;;;1.23;1.00;;;;;;;5.14;100.00;99384.53;5109313;28;20595;-62
2023/12/20 00:51:22;;;;;;;1.30;0.83;;;;;;;5.05;100.00;99385.78;5109363;28;20196;-62
2023/12/20 00:53:50;;;;;;;0.83;0.63;;;;;;;4.99;100.00;99368.31;5109034;28;20202;-62
2023/12/20 00:56:17;;;;;;;1.43;0.90;;;;;;;5.02;100.00;99365.66;5109004;28;20732;-62
2023/12/20 00:58:44;;;;;;;0.43;0.43;;;;;;;5.00;100.00;99364.88;5108820;28;20229;-62
2023/12/20 01:01:10;;;;;;;0.73;0.73;;;;;;;4.88;100.00;99352.78;5108956;28;20197;-62
2023/12/20 01:03:38;;;;;;;1.27;0.90;;;;;;;4.88;100.00;99355.31;5109167;28;20204;-62
2023/12/20 01:06:05;;;;;;;1.30;0.80;;;;;;;4.92;100.00;99354.31;5108840;28;20197;-62
2023/12/20 01:08:34;;;;;;;0.70;0.70;;;;;;;4.87;100.00;99351.13;5108622;28;20205;-63
2023/12/20 01:11:01;;;;;;;0.93;0.87;;;;;;;4.84;100.00;99351.28;5108722;28;20199;-63
2023/12/20 01:13:27;;;;;;;0.63;0.63;;;;;;;4.83;100.00;99349.63;5109840;28;20228;-63
2023/12/20 01:15:55;;;;;;;1.27;0.70;;;;;;;4.87;100.00;99346.06;5113465;28;20217;-63
2023/12/20 01:18:22;;;;;;;3.50;0.67;;;;;;;4.99;100.00;99346.34;5113173;27;20233;-62
2023/12/20 01:20:50;;;;;;;1.87;0.80;;;;;;;4.92;100.00;99336.56;5113139;27;20201;-63
2023/12/20 01:23:17;;;;;;;1.03;0.83;;;;;;;4.96;100.00;99338.06;5113110;28;20236;-63
2023/12/20 01:25:44;;;;;;;2.40;1.63;;;;;;;5.04;100.00;99330.94;5112704;28;20854;-63
2023/12/20 01:28:11;;;;;;;0.50;0.50;;;;;;;5.14;100.00;99329.59;5113072;28;20193;-63
2023/12/20 01:30:37;;;;;;;0.60;0.60;;;;;;;5.17;100.00;99329.47;5113028;28;20197;-63
2023/12/20 01:33:04;;;;;;;0.93;0.67;;;;;;;5.18;100.00;99328.59;5112603;28;20204;-63
2023/12/20 01:35:31;;;;;;;1.53;0.70;;;;;;;5.11;100.00;99332.28;5112759;28;20204;-62
2023/12/20 01:37:59;;;;;;;1.30;1.20;;;;;;;5.06;100.00;99320.72;5112418;28;20729;-62
2023/12/20 01:40:26;;;;;;;1.47;1.10;;;;;;;5.08;100.00;99319.75;5112643;28;20197;-62
2023/12/20 01:42:59;;;;;;;2.00;1.27;;;;;;;5.07;100.00;99320.66;5112761;28;20216;-63
2023/12/20 01:45:26;;;;;;;0.97;0.87;;;;;;;5.07;100.00;99320.66;5112860;28;20201;-62
2023/12/20 01:47:53;;;;;;;1.73;0.97;;;;;;;5.08;100.00;99314.69;5112485;28;20220;-62
2023/12/20 01:50:20;;;;;;;3.03;0.90;;;;;;;4.98;100.00;99308.41;5112952;28;20198;-62
2023/12/20 01:52:47;;;;;;;2.50;1.43;;;;;;;5.02;100.00;99304.84;5112354;28;20214;-62
2023/12/20 01:55:15;;;;;;;0.80;0.73;;;;;;;5.11;100.00;99299.34;5112445;28;20204;-62
2023/12/20 01:57:42;;;;;;;2.27;1.70;;;;;;;5.08;100.00;99299.47;5112052;28;20236;-62
2023/12/20 02:00:11;;;;;;;1.70;1.50;;;;;;;5.08;100.00;99294.41;5112516;28;20197;-62
2023/12/20 02:02:40;;;;;;;1.33;1.07;;;;;;;5.06;100.00;99291.16;5112144;28;20227;-62
2023/12/20 02:05:08;;;;;;;1.67;0.93;;;;;;;5.07;100.00;99286.91;5112199;28;20594;-63
2023/12/20 02:07:35;;;;;;;2.70;1.47;;;;;;;5.14;100.00;99283.16;5112087;28;20216;-63
2023/12/20 02:10:02;;;;;;;3.00;0.70;;;;;;;5.08;100.00;99268.25;5112261;28;20274;-63
2023/12/20 02:12:30;;;;;;;1.27;1.07;;;;;;;5.06;100.00;99264.97;5112221;28;20246;-63
2023/12/20 02:14:57;;;;;;;1.40;0.67;;;;;;;5.08;100.00;99264.00;5111936;28;20205;-63
2023/12/20 02:17:24;;;;;;;0.63;0.50;;;;;;;5.11;100.00;99268.91;5112232;28;20201;-63
2023/12/20 02:19:51;;;;;;;0.40;0.40;;;;;;;5.17;100.00;99258.50;5112179;28;20212;-63
2023/12/20 02:22:19;;;;;;;1.27;0.97;;;;;;;5.25;100.00;99250.53;5111939;28;20678;-62
2023/12/20 02:24:46;;;;;;;1.03;0.57;;;;;;;5.20;100.00;99248.22;5111877;28;20463;-63
2023/12/20 02:27:13;;;;;;;0.50;0.47;;;;;;;5.24;100.00;99248.09;5111665;28;20674;-63
2023/12/20 02:29:40;;;;;;;0.87;0.67;;;;;;;5.22;100.00;99241.38;5111665;28;20208;-62
2023/12/20 02:32:07;;;;;;;0.60;0.60;;;;;;;5.21;100.00;99233.84;5111696;28;20698;-63
2023/12/20 02:34:34;;;;;;;1.63;1.03;;;;;;;5.11;100.00;99232.63;5111719;28;20201;-63
2023/12/20 02:37:00;;;;;;;0.60;0.60;;;;;;;5.05;100.00;99233.75;5111939;28;20205;-62
2023/12/20 02:39:28;;;;;;;0.77;0.77;;;;;;;5.08;100.00;99222.63;5111579;28;20232;-62
2023/12/20 02:41:55;;;;;;;1.90;1.37;;;;;;;5.03;100.00;99224.56;5111387;28;20700;-62
2023/12/20 02:44:22;;;;;;;0.57;0.50;;;;;;;5.01;100.00;99222.13;5110453;28;20215;-62
2023/12/20 02:46:49;;;;;;;0.60;0.60;;;;;;;4.90;100.00;99219.25;5110364;28;20240;-62
2023/12/20 02:49:16;;;;;;;1.07;0.90;;;;;;;4.90;100.00;99224.34;5111011;28;20205;-62
2023/12/20 02:51:43;;;;;;;2.20;0.80;;;;;;;4.93;100.00;99219.13;5111413;28;20197;-62
2023/12/20 02:54:09;;;;;;;1.57;0.97;;;;;;;4.99;100.00;99219.63;5111459;28;20283;-62
2023/12/20 02:56:37;;;;;;;2.07;0.93;;;;;;;4.91;100.00;99210.75;5111126;28;20205;-62
2023/12/20 02:59:05;;;;;;;1.00;0.90;;;;;;;4.87;100.00;99206.75;5111155;28;20229;-62
2023/12/20 03:01:33;;;;;;;0.63;0.63;;;;;;;4.79;100.00;99201.22;5111047;28;20198;-63
2023/12/20 03:03:59;;;;;;;0.90;0.83;;;;;;;4.79;100.00;99201.22;5110898;28;20206;-63
2023/12/20 03:06:26;;;;;;;0.90;0.90;;;;;;;4.90;100.00;99199.81;5111081;28;20193;-63
2023/12/20 03:08:53;;;;;;;1.43;0.63;;;;;;;4.88;100.00;99200.78;5110912;28;20197;-63
2023/12/20 03:11:20;;;;;;;0.77;0.67;;;;;;;4.82;100.00;99198.53;5111098;28;20201;-62
2023/12/20 03:13:48;;;;;;;1.77;0.60;;;;;;;4.81;100.00;99186.78;5110780;28;20205;-62
2023/12/20 03:16:16;;;;;;;0.87;0.87;;;;;;;4.78;100.00;99186.91;5110780;28;20201;-62
2023/12/20 03:18:43;;;;;;;1.07;0.97;;;;;;;4.76;100.00;99199.63;5110676;28;20692;-62
2023/12/20 03:21:10;;;;;;;0.53;0.50;;;;;;;4.63;100.00;99196.88;5110592;28;20243;-62
2023/12/20 03:23:37;;;;;;;0.40;0.40;;;;;;;4.65;100.00;99189.19;5110633;28;20685;-62
2023/12/20 03:26:04;;;;;;;1.37;0.87;;;;;;;4.67;100.00;99183.16;5110899;27;20214;-62
2023/12/20 03:28:31;;;;;;;1.63;0.90;;;;;;;4.66;100.00;99184.06;5110298;28;20197;-62
2023/12/20 03:30:59;;;;;;;0.40;0.40;;;;;;;4.60;100.00;99181.00;5110484;28;20602;-62
2023/12/20 03:33:26;;;;;;;1.03;0.67;;;;;;;4.52;100.00;99173.75;5110774;28;20201;-63
2023/12/20 03:35:52;;;;;;;1.70;1.00;;;;;;;4.44;100.00;99170.75;5110130;28;20197;-62
2023/12/20 03:38:19;;;;;;;0.50;0.50;;;;;;;4.50;100.00;99175.50;5109977;28;20657;-62
2023/12/20 03:40:46;;;;;;;0.70;0.57;;;;;;;4.63;100.00;99166.47;5110365;28;20197;-62
2023/12/20 03:43:13;;;;;;;0.50;0.50;;;;;;;4.66;100.00;99166.34;5110240;28;20208;-62
2023/12/20 03:45:39;;;;;;;0.87;0.60;;;;;;;4.70;100.00;99167.81;5110242;28;20197;-62
2023/12/20 03:48:08;;;;;;;0.40;0.40;;;;;;;4.69;100.00;99156.06;5110030;28;20200;-62
2023/12/20 03:50:35;;;;;;;1.13;0.63;;;;;;;4.65;100.00;99153.72;5109996;28;20197;-62
2023/12/20 03:53:03;;;;;;;0.57;0.50;;;;;;;4.59;100.00;99149.75;5110022;28;20201;-62
2023/12/20 03:55:30;;;;;;;0.97;0.70;;;;;;;4.49;100.00;99144.31;5110438;28;20205;-62
2023/12/20 03:57:57;;;;;;;0.80;0.80;;;;;;;4.47;100.00;99142.75;5109899;28;20197;-62
2023/12/20 04:00:24;;;;;;;0.60;0.57;;;;;;;4.53;100.00;99145.00;5110252;28;20206;-62
2023/12/20 04:02:50;;;;;;;1.33;0.60;;;;;;;4.49;100.00;99138.44;5109848;28;20704;-62
2023/12/20 04:05:19;;;;;;;0.60;0.60;;;;;;;4.49;100.00;99141.78;5109819;27;20205;-62
2023/12/20 04:07:46;;;;;;;0.80;0.80;;;;;;;4.61;100.00;99142.94;5109851;27;20692;-62
2023/12/20 04:10:13;;;;;;;1.47;0.80;;;;;;;4.61;100.00;99145.47;5110023;28;20210;-63
2023/12/20 04:12:40;;;;;;;0.83;0.73;;;;;;;4.61;100.00;99142.94;5109601;28;20229;-63
2023/12/20 04:15:09;;;;;;;0.80;0.73;;;;;;;4.60;100.00;99138.78;5109699;28;20405;-62
2023/12/20 04:17:36;;;;;;;2.10;1.07;;;;;;;4.56;100.00;99132.19;5109517;28;20245;-62
2023/12/20 04:20:03;;;;;;;0.67;0.67;;;;;;;4.53;100.00;99134.88;5109238;28;20619;-62
2023/12/20 04:22:31;;;;;;;0.50;0.50;;;;;;;4.48;100.00;99130.03;5109825;28;20197;-62
2023/12/20 04:24:58;;;;;;;1.80;1.37;;;;;;;4.46;100.00;99133.53;5109499;28;20201;-62
2023/12/20 04:27:23;;;;;;;0.57;0.50;;;;;;;4.45;100.00;99129.34;5108494;28;20205;-62
2023/12/20 04:29:50;;;;;;;1.17;0.67;;;;;;;4.44;100.00;99120.94;5108311;27;20676;-62
2023/12/20 04:32:17;;;;;;;1.00;0.60;;;;;;;4.39;100.00;99132.16;5108659;28;20205;-62
2023/12/20 04:34:44;;;;;;;1.50;0.70;;;;;;;4.28;100.00;99122.53;5109125;28;20602;-63
2023/12/20 04:37:10;;;;;;;1.43;0.70;;;;;;;4.18;100.00;99114.53;5109511;28;20197;-63
2023/12/20 04:39:39;;;;;;;0.53;0.50;;;;;;;4.16;100.00;99121.38;5109260;28;20229;-63
2023/12/20 04:42:06;;;;;;;0.67;0.67;;;;;;;4.19;100.00;99115.34;5109493;28;20205;-63
2023/12/20 04:44:33;;;;;;;0.33;0.33;;;;;;;4.30;100.00;99110.63;5109200;28;20230;-62
2023/12/20 04:47:00;;;;;;;1.80;1.20;;;;;;;4.34;100.00;99104.53;5109286;28;20197;-62
2023/12/20 04:49:27;;;;;;;0.93;0.90;;;;;;;4.23;100.00;99106.75;5108149;28;20202;-62
2023/12/20 04:51:53;;;;;;;1.03;0.93;;;;;;;4.18;100.00;99104.41;5109100;28;20209;-62
2023/12/20 04:54:20;;;;;;;0.70;0.70;;;;;;;4.26;100.00;99099.00;5109445;28;20208;-62
2023/12/20 04:56:48;;;;;;;1.13;0.93;;;;;;;4.27;100.00;99109.03;5109238;28;20216;-62
2023/12/20 04:59:15;;;;;;;0.43;0.43;;;;;;;4.23;100.00;99099.97;5109019;28;20268;-62
2023/12/20 05:01:42;;;;;;;2.97;0.80;;;;;;;4.23;100.00;99092.38;5108880;28;20224;-62
2023/12/20 05:04:09;;;;;;;0.80;0.70;;;;;;;4.21;100.00;99103.44;5108941;28;20197;-62
2023/12/20 05:06:35;;;;;;;1.07;0.90;;;;;;;4.16;100.00;99088.50;5108834;28;20197;-62
2023/12/20 05:09:02;;;;;;;1.03;0.83;;;;;;;4.08;100.00;99088.03;5108755;28;20669;-62
2023/12/20 05:11:29;;;;;;;1.20;0.70;;;;;;;4.02;100.00;99093.38;5109080;28;20208;-62
2023/12/20 05:13:57;;;;;;;0.73;0.40;;;;;;;4.01;100.00;99087.47;5108824;28;20193;-62
2023/12/20 05:16:24;;;;;;;1.00;0.90;;;;;;;4.02;100.00;99084.06;5109025;28;20201;-62
2023/12/20 05:18:52;;;;;;;0.67;0.67;;;;;;;3.98;100.00;99090.13;5108827;28;20236;-62
2023/12/20 05:21:19;;;;;;;1.43;0.83;;;;;;;3.96;100.00;99088.59;5108706;28;20232;-62
2023/12/20 05:23:46;;;;;;;1.40;1.30;;;;;;;3.95;100.00;99097.03;5108757;28;20201;-62
2023/12/20 05:26:13;;;;;;;1.53;0.97;;;;;;;3.97;100.00;99091.03;5108714;28;20197;-62
2023/12/20 05:28:39;;;;;;;1.40;0.67;;;;;;;3.94;100.00;99085.28;5108815;28;20241;-62
2023/12/20 05:31:08;;;;;;;0.93;0.57;;;;;;;3.91;100.00;99085.44;5108944;28;20204;-62
2023/12/20 05:33:34;;;;;;;0.40;0.40;;;;;;;3.91;100.00;99087.97;5108539;28;20202;-62
2023/12/20 05:36:01;;;;;;;0.47;0.47;;;;;;;3.89;100.00;99085.50;5108569;28;20294;-62
2023/12/20 05:38:28;;;;;;;1.40;1.03;;;;;;;3.80;100.00;99079.13;5108735;28;20231;-62
2023/12/20 05:40:55;;;;;;;1.20;1.10;;;;;;;3.82;100.00;99081.63;5108760;28;20220;-62
2023/12/20 05:43:22;;;;;;;1.23;0.57;;;;;;;3.77;100.00;99081.81;5108599;28;20251;-63
2023/12/20 05:45:48;;;;;;;0.93;0.60;;;;;;;3.78;100.00;99078.41;5108357;28;20229;-63
2023/12/20 05:48:16;;;;;;;1.03;1.00;;;;;;;3.73;100.00;99067.66;5106962;28;20206;-62
2023/12/20 05:50:43;;;;;;;0.70;0.70;;;;;;;3.75;100.00;99076.00;5107272;28;20674;-62
2023/12/20 05:53:10;;;;;;;0.43;0.43;;;;;;;3.80;100.00;99081.66;5108318;28;20640;-63
2023/12/20 05:55:37;;;;;;;0.73;0.60;;;;;;;3.83;100.00;99081.53;5108291;28;20197;-63
2023/12/20 05:58:05;;;;;;;0.70;0.70;;;;;;;3.90;100.00;99078.72;5108605;28;20200;-62
2023/12/20 06:00:31;;;;;;;1.17;0.70;;;;;;;3.93;100.00;99076.91;5110933;28;20240;-62
2023/12/20 06:02:58;;;;;;;0.70;0.63;;;;;;;3.93;100.00;99071.03;5112355;28;20209;-62
2023/12/20 06:05:26;;;;;;;0.63;0.60;;;;;;;3.97;100.00;99065.72;5112135;28;20201;-62
2023/12/20 06:07:54;;;;;;;1.90;1.03;;;;;;;3.98;100.00;99061.50;5112550;28;20193;-62
2023/12/20 06:10:21;;;;;;;0.63;0.50;;;;;;;4.01;100.00;99062.16;5112064;28;20208;-62
2023/12/20 06:12:50;;;;;;;0.80;0.80;;;;;;;4.01;100.00;99062.16;5111912;28;20693;-62
2023/12/20 06:15:16;;;;;;;1.73;0.63;;;;;;;4.08;100.00;99052.59;5112265;28;20198;-62
2023/12/20 06:17:43;;;;;;;1.00;1.00;;;;;;;4.09;100.00;99049.19;5112123;28;20197;-62
2023/12/20 06:20:11;;;;;;;1.20;1.00;;;;;;;4.08;100.00;99050.06;5112107;28;20237;-62
2023/12/20 06:22:39;;;;;;;2.03;0.87;;;;;;;4.12;100.00;99058.34;5111720;28;20581;-62
2023/12/20 06:25:06;;;;;;;1.07;0.97;;;;;;;4.20;100.00;99052.03;5112167;27;20201;-63
2023/12/20 06:27:33;;;;;;;0.80;0.80;;;;;;;4.27;100.00;99050.84;5111688;28;20204;-63
2023/12/20 06:30:00;;;;;;;2.03;0.73;;;;;;;4.25;100.00;99047.56;5111884;28;20224;-63
2023/12/20 06:32:28;;;;;;;0.40;0.40;;;;;;;4.26;100.00;99048.41;5111520;28;20221;-63
2023/12/20 06:34:55;;;;;;;1.00;0.77;;;;;;;4.32;100.00;99046.38;5111749;28;20209;-62
2023/12/20 06:37:22;;;;;;;2.27;0.70;;;;;;;4.40;100.00;99047.75;5111515;28;20198;-62
2023/12/20 06:39:50;;;;;;;2.83;0.50;;;;;;;4.48;100.00;99048.19;5111764;28;20232;-62
2023/12/20 06:42:17;;;;;;;0.73;0.73;;;;;;;4.52;100.00;99049.69;5111678;28;20380;-62
2023/12/20 06:44:44;;;;;;;0.70;0.70;;;;;;;4.58;100.00;99041.78;5111387;28;20559;-62
2023/12/20 06:47:10;;;;;;;0.70;0.63;;;;;;;4.62;100.00;99037.41;5111448;28;20197;-62
2023/12/20 06:49:37;;;;;;;1.23;0.90;;;;;;;4.66;100.00;99039.72;5111787;28;20202;-62
2023/12/20 06:52:04;;;;;;;0.50;0.50;;;;;;;4.79;100.00;99031.50;5111240;28;20197;-62
2023/12/20 06:54:31;;;;;;;0.50;0.50;;;;;;;4.87;100.00;99029.41;5111174;28;20197;-63
2023/12/20 06:56:59;;;;;;;1.37;1.07;;;;;;;4.90;100.00;99032.63;5111311;28;20193;-63
2023/12/20 06:59:26;;;;;;;0.60;0.60;;;;;;;4.94;100.00;99034.09;5111161;28;20599;-63
2023/12/20 07:01:53;;;;;;;0.53;0.53;;;;;;;5.04;100.00;99038.72;5111152;27;20197;-63
2023/12/20 07:04:21;;;;;;;1.20;1.00;;;;;;;5.03;100.00;99037.88;5111207;28;20619;-62
2023/12/20 07:06:51;;;;;;;1.70;1.07;;;;;;;5.08;100.00;99040.19;5111055;27;20216;-62
2023/12/20 07:09:17;;;;;;;0.60;0.60;;;;;;;5.21;100.00;99036.16;5110840;28;20622;-63
2023/12/20 07:11:44;;;;;;;0.50;0.50;;;;;;;5.27;100.00;99029.94;5110217;28;20223;-63
2023/12/20 07:14:12;;;;;;;2.27;0.77;;;;;;;5.36;100.00;99030.28;5110860;28;20198;-62
2023/12/20 07:16:40;;;;;;;0.93;0.87;;;;;;;5.42;100.00;99029.97;5110832;28;20221;-62
2023/12/20 07:19:07;;;;;;;0.60;0.60;;;;;;;5.52;100.00;99034.53;5110605;28;20296;-62
2023/12/20 07:21:33;;;;;;;0.80;0.80;;;;;;;5.53;99.49;99031.94;5110823;27;20284;-62
2023/12/20 07:24:00;;;;;;;0.97;0.90;;;;;;;5.60;99.23;99028.19;5110493;28;20212;-62
2023/12/20 07:26:27;;;;;;;0.40;0.40;;;;;;;5.78;98.87;99035.72;5110494;28;20664;-62
2023/12/20 07:28:54;;;;;;;1.07;0.53;;;;;;;5.90;98.16;99030.81;5110655;28;20208;-62
2023/12/20 07:31:23;;;;;;;0.90;0.50;;;;;;;6.01;98.33;99024.34;5110437;28;20208;-62
2023/12/20 07:33:50;;;;;;;0.87;0.80;;;;;;;6.10;97.06;99022.13;5110481;28;20207;-62
2023/12/20 07:36:17;;;;;;;0.73;0.67;;;;;;;6.22;96.21;99020.63;5110686;28;20201;-62
2023/12/20 07:38:44;;;;;;;2.27;1.20;;;;;;;6.30;95.93;99017.66;5110591;28;20201;-62
2023/12/20 07:41:11;;;;;;;2.57;0.97;;;;;;;6.38;95.07;99018.06;5110189;28;20279;-62
2023/12/20 07:43:38;;;;;;;1.00;0.80;;;;;;;6.40;93.80;99018.81;5110252;28;20197;-62
2023/12/20 07:46:06;;;;;;;1.10;1.00;;;;;;;6.44;93.41;99020.25;5110144;28;20201;-62
2023/12/20 07:48:34;;;;;;;0.90;0.80;;;;;;;6.60;94.37;99014.31;5110172;28;20505;-62
2023/12/20 07:51:01;;;;;;;1.30;1.03;;;;;;;6.70;94.12;99010.34;5110032;28;20288;-62
2023/12/20 07:53:28;;;;;;;0.77;0.67;;;;;;;6.81;93.43;99023.25;5110076;28;20208;-62
2023/12/20 07:55:54;;;;;;;1.00;0.90;;;;;;;6.90;93.75;99021.91;5110173;28;20244;-62
2023/12/20 07:58:21;;;;;;;3.97;0.83;;;;;;;6.99;92.77;99021.38;5110106;28;20205;-61
2023/12/20 08:00:48;;;;;;;0.67;0.60;;;;;;;7.08;92.31;99010.66;5109772;28;20240;-61
2023/12/20 08:03:16;;;;;;;1.33;0.77;;;;;;;7.15;91.49;99006.00;5109852;28;20205;-61
2023/12/20 08:05:44;;;;;;;0.57;0.57;;;;;;;7.20;90.33;99009.09;5110211;28;20280;-61
2023/12/20 08:08:11;;;;;;;0.97;0.90;;;;;;;7.25;89.73;99002.03;5109600;28;20197;-62
2023/12/20 08:10:37;;;;;;;0.50;0.50;;;;;;;7.33;88.69;99009.16;5109663;28;20608;-62
2023/12/20 08:13:04;;;;;;;1.03;0.93;;;;;;;7.42;88.03;99012.00;5109812;28;20202;-62
2023/12/20 08:15:31;;;;;;;0.80;0.80;;;;;;;7.61;88.64;99009.13;5109647;28;20197;-62
2023/12/20 08:17:58;;;;;;;0.90;0.77;;;;;;;7.69;86.15;99011.22;5109611;28;20212;-62
2023/12/20 08:20:25;;;;;;;1.30;0.90;;;;;;;7.82;85.80;99012.09;5109644;28;20236;-62
2023/12/20 08:22:53;;;;;;;1.10;1.00;;;;;;;7.92;85.70;99002.97;5109511;28;20617;-61
2023/12/20 08:25:20;;;;;;;1.07;0.80;;;;;;;8.10;85.88;99000.19;5110003;28;20202;-61
2023/12/20 08:27:46;;;;;;;0.93;0.60;;;;;;;8.25;85.67;99001.75;5109647;28;20197;-61
2023/12/20 08:30:13;;;;;;;1.20;0.77;;;;;;;8.42;84.97;98987.97;5109840;28;20201;-61
2023/12/20 08:32:40;;;;;;;1.20;1.10;;;;;;;8.55;83.55;98982.88;5109533;28;20497;-61
2023/12/20 08:35:07;;;;;;;0.70;0.60;;;;;;;8.68;81.70;98976.06;5109332;28;20197;-61
2023/12/20 08:37:35;;;;;;;1.50;0.77;;;;;;;8.91;81.43;98971.16;5109251;28;20394;-62
2023/12/20 08:40:04;;;;;;;1.23;1.00;;;;;;;8.96;78.82;98969.09;5109069;28;20241;-61
2023/12/20 08:42:31;;;;;;;0.80;0.80;;;;;;;9.08;77.37;98963.19;5109406;28;20205;-61
2023/12/20 08:44:58;;;;;;;0.77;0.60;;;;;;;9.38;75.75;98957.72;5109393;28;20201;-61
2023/12/20 08:47:25;;;;;;;1.00;0.60;;;;;;;9.75;73.83;98952.59;5109337;28;20221;-61
2023/12/20 08:49:56;;;;;;;2.20;0.80;;;;;;;10.08;76.09;98954.47;5109388;28;20205;-61
2023/12/20 08:52:23;;;;;;;1.40;1.30;;;;;;;10.39;74.55;98944.59;5109088;28;20197;-61
2023/12/20 08:54:51;;;;;;;1.27;1.17;;;;;;;10.60;75.43;98945.56;5108946;28;20198;-61
2023/12/20 08:57:22;;;;;;;1.77;1.47;;;;;;;10.81;71.85;98952.53;5108853;28;20205;-61
2023/12/20 08:59:49;;;;;;;5.90;2.10;;;;;;;10.90;74.61;98940.81;5108859;28;20748;-61
2023/12/20 09:02:16;;;;;;;1.20;0.90;;;;;;;11.06;74.55;98941.28;5108978;28;20198;-62
2023/12/20 09:04:43;;;;;;;1.07;0.90;;;;;;;11.25;74.08;98945.78;5108871;28;20197;-62
2023/12/20 09:07:22;;;;;;;1.03;0.80;;;;;;;11.23;74.03;98932.31;5109017;28;20220;-62
2023/12/20 09:09:49;;;;;;;1.27;0.73;;;;;;;11.34;73.60;98924.59;5108981;28;20201;-62
2023/12/20 09:12:16;;;;;;;1.20;1.10;;;;;;;11.33;70.80;98922.97;5107965;28;20666;-62
2023/12/20 09:14:44;;;;;;;1.83;1.23;;;;;;;11.30;69.38;98915.53;5108231;28;20208;-61
2023/12/20 09:17:11;;;;;;;1.70;0.97;;;;;;;11.31;71.00;98912.03;5108917;28;20201;-61
2023/12/20 09:19:38;;;;;;;1.20;1.10;;;;;;;11.31;70.50;98896.66;5108882;28;20207;-61
2023/12/20 09:22:05;;;;;;;1.97;1.30;;;;;;;11.33;71.42;98890.50;5109009;28;20224;-61
2023/12/20 09:24:32;;;;;;;1.97;1.17;;;;;;;11.39;69.93;98896.09;5108878;28;20205;-61
2023/12/20 09:26:59;;;;;;;1.70;1.50;;;;;;;11.48;68.99;98887.66;5108795;28;20198;-61
2023/12/20 09:29:26;;;;;;;1.07;0.97;;;;;;;11.49;67.16;98891.84;5108600;28;20697;-62
2023/12/20 09:31:54;;;;;;;1.23;1.00;;;;;;;11.63;66.64;98888.19;5108699;28;20699;-62
2023/12/20 09:34:21;;;;;;;2.00;1.60;;;;;;;11.47;64.03;98878.38;5108971;28;20588;-62
2023/12/20 09:36:47;;;;;;;2.30;1.50;;;;;;;11.59;64.93;98877.41;5112777;28;20773;-62
2023/12/20 09:39:15;;;;;;;2.50;1.60;;;;;;;11.69;64.77;98864.66;5112931;28;20232;-62
2023/12/20 09:41:46;;;;;;;2.03;1.40;;;;;;;11.79;67.12;98852.75;5112846;28;20233;-62
2023/12/20 09:44:17;;;;;;;2.07;1.30;;;;;;;12.14;68.17;98842.22;5112612;28;20197;-62
2023/12/20 09:46:46;;;;;;;2.10;1.50;;;;;;;12.48;64.03;98847.09;5112719;28;20263;-62
2023/12/20 09:49:15;;;;;;;1.93;1.60;;;;;;;12.61;60.82;98839.19;5112320;28;20197;-62
2023/12/20 09:51:42;;;;;;;3.23;1.40;;;;;;;12.70;55.93;98846.09;5112540;28;20198;-62
2023/12/20 09:54:10;;;;;;;2.57;1.60;;;;;;;12.99;57.83;98842.78;5112643;27;20661;-62
2023/12/20 09:56:38;;;;;;;1.90;1.20;;;;;;;13.48;56.32;98835.97;5112517;28;20210;-62
2023/12/20 09:59:05;;;;;;;2.53;1.40;;;;;;;13.55;55.98;98824.19;5112520;28;20203;-61
2023/12/20 10:01:32;;;;;;;1.93;1.63;;;;;;;13.66;56.70;98820.69;5112180;28;20243;-61
2023/12/20 10:04:01;;;;;;;2.30;1.57;;;;;;;13.55;57.07;98814.72;5112320;28;20200;-62
2023/12/20 10:06:29;;;;;;;2.33;1.60;;;;;;;13.45;56.65;98813.13;5112436;28;20200;-62
2023/12/20 10:08:56;;;;;;;2.43;1.60;;;;;;;13.44;56.56;98806.38;5112230;28;20206;-62
2023/12/20 10:11:23;;;;;;;2.97;1.80;;;;;;;13.43;57.40;98799.63;5112421;28;20277;-62
2023/12/20 10:13:50;;;;;;;1.77;1.60;;;;;;;13.43;57.62;98799.63;5112096;28;20199;-62
2023/12/20 10:16:17;;;;;;;4.37;1.50;;;;;;;13.48;54.15;98793.13;5111883;28;20232;-62
2023/12/20 10:18:44;;;;;;;2.13;1.33;;;;;;;13.26;53.54;98804.47;5111889;28;20208;-62
2023/12/20 10:21:11;;;;;;;2.10;1.40;;;;;;;13.27;53.31;98806.13;5112105;28;20225;-62
2023/12/20 10:23:40;;;;;;;1.83;1.27;;;;;;;13.03;55.55;98797.94;5111810;28;20206;-62
2023/12/20 10:26:07;;;;;;;1.80;1.30;;;;;;;13.05;55.79;98796.06;5111784;28;20590;-62
2023/12/20 10:28:35;;;;;;;2.07;1.40;;;;;;;13.11;54.44;98795.53;5111910;28;20208;-62
2023/12/20 10:31:02;;;;;;;1.97;1.30;;;;;;;13.21;53.97;98790.41;5111991;28;20209;-62
2023/12/20 10:33:29;;;;;;;3.87;2.00;;;;;;;13.14;54.97;98783.22;5111553;28;20206;-62
2023/12/20 10:35:57;;;;;;;2.60;1.70;;;;;;;13.16;56.20;98783.09;5112084;28;20226;-62
2023/12/20 10:38:24;;;;;;;3.13;1.70;;;;;;;13.01;56.18;98776.75;5111655;28;20196;-62
2023/12/20 10:40:57;;;;;;;3.97;1.90;;;;;;;12.97;56.59;98778.75;5111521;28;20234;-62
2023/12/20 10:43:26;;;;;;;2.70;1.80;;;;;;;12.83;57.60;98774.84;5111810;28;20200;-62
2023/12/20 10:45:53;;;;;;;5.20;2.00;;;;;;;12.37;60.11;98776.22;5110406;28;20204;-62
2023/12/20 10:48:22;;;;;;;2.87;2.00;;;;;;;12.56;61.24;98765.19;5111459;28;20204;-62
2023/12/20 10:50:50;;;;;;;6.00;2.30;;;;;;;12.46;60.36;98757.47;5111269;28;20206;-62
2023/12/20 10:53:17;;;;;;;2.87;1.83;;;;;;;12.25;61.63;98741.38;5111275;28;20325;-62
2023/12/20 10:55:45;;;;;;;1.80;1.60;;;;;;;12.10;62.11;98738.34;5111167;28;20211;-62
2023/12/20 10:58:15;;;;;;;5.07;1.63;;;;;;;12.27;62.04;98738.66;5111267;28;20199;-62
2023/12/20 11:00:42;;;;;;;2.37;1.60;;;;;;;12.40;62.48;98734.94;5111536;28;20237;-62
2023/12/20 11:03:12;;;;;;;2.03;1.40;;;;;;;12.34;60.70;98735.44;5111178;28;20213;-62
2023/12/20 11:05:45;;;;;;;3.00;1.43;;;;;;;12.51;61.50;98730.63;5111126;28;20698;-62
2023/12/20 11:08:18;;;;;;;4.03;2.00;;;;;;;12.63;62.52;98727.03;5110812;28;20666;-61
2023/12/20 11:10:52;;;;;;;2.67;1.80;;;;;;;12.68;63.42;98722.28;5110934;28;20694;-61
2023/12/20 11:13:28;;;;;;;3.57;2.20;;;;;;;12.73;61.21;98717.56;5110904;27;20685;-61
2023/12/20 11:15:55;;;;;;;3.77;2.67;;;;;;;12.77;63.53;98721.50;5111050;28;20199;-62
2023/12/20 11:18:30;;;;;;;4.37;2.37;;;;;;;12.80;63.11;98710.13;5110812;28;20204;-62
2023/12/20 11:21:03;;;;;;;3.63;2.17;;;;;;;12.75;60.67;98702.06;5110594;28;20234;-62
2023/12/20 11:23:33;;;;;;;3.90;2.47;;;;;;;12.79;62.91;98711.09;5109997;28;20192;-62
2023/12/20 11:25:59;;;;;;;3.10;1.97;;;;;;;12.82;61.44;98698.78;5110243;28;20195;-62
2023/12/20 11:28:29;;;;;;;3.13;2.10;;;;;;;12.95;61.51;98692.63;5110498;28;20200;-62
2023/12/20 11:30:59;;;;;;;3.40;2.00;;;;;;;12.88;60.57;98690.56;5110759;28;20200;-62
2023/12/20 11:33:30;;;;;;;3.53;2.13;;;;;;;13.05;62.51;98688.28;5110677;28;20227;-62
2023/12/20 11:35:57;;;;;;;3.43;2.10;;;;;;;13.17;63.10;98687.16;5110414;28;20211;-62